createdAt,value
2017-07-03T00:01:34.544Z,74.90
2017-07-03T00:04:02.332Z,74.90
2017-07-03T00:06:37.171Z,76.00
2017-07-03T00:09:15.874Z,75.10
2017-07-03T00:11:43.348Z,75.00
2017-07-03T00:14:10.827Z,75.10
2017-07-03T00:16:38.313Z,75.20
2017-07-03T00:19:15.750Z,75.30
2017-07-03T00:21:44.346Z,75.40
2017-07-03T00:24:11.827Z,75.30
2017-07-03T00:26:45.625Z,75.40
2017-07-03T00:29:16.180Z,75.50
2017-07-03T00:31:47.070Z,75.60
2017-07-03T00:34:15.327Z,75.90
2017-07-03T00:36:45.919Z,75.70
2017-07-03T00:39:13.407Z,75.90
2017-07-03T00:41:46.730Z,76.10
2017-07-03T00:44:25.454Z,76.20
2017-07-03T00:46:52.947Z,76.10
2017-07-03T00:49:20.430Z,76.30
2017-07-03T00:51:54.681Z,76.30
2017-07-03T00:54:22.921Z,76.30
2017-07-03T00:56:50.725Z,76.20
2017-07-03T00:59:18.208Z,76.20
2017-07-03T01:01:45.747Z,76.30
2017-07-03T01:04:14.022Z,76.30
2017-07-03T01:06:41.577Z,76.30
2017-07-03T01:09:10.167Z,76.70
2017-07-03T01:11:37.666Z,76.70
2017-07-03T01:14:05.173Z,76.90
2017-07-03T01:16:35.292Z,77.10
2017-07-03T01:19:05.684Z,77.00
2017-07-03T01:21:36.469Z,77.20
2017-07-03T01:24:04.714Z,77.30
2017-07-03T01:26:32.195Z,77.30
2017-07-03T01:29:05.798Z,77.60
2017-07-03T01:31:33.264Z,77.80
2017-07-03T01:34:01.122Z,77.80
2017-07-03T01:36:29.368Z,78.20
2017-07-03T01:39:05.545Z,78.10
2017-07-03T01:41:33.125Z,78.40
2017-07-03T01:44:01.397Z,78.70
2017-07-03T01:46:36.138Z,78.80
2017-07-03T01:49:04.962Z,78.60
2017-07-03T01:51:35.952Z,78.50
2017-07-03T01:54:05.151Z,78.40
2017-07-03T01:56:33.435Z,78.30
2017-07-03T01:59:01.708Z,78.30
2017-07-03T02:01:29.264Z,78.10
2017-07-03T02:03:57.798Z,78.10
2017-07-03T02:06:35.145Z,78.10
2017-07-03T02:09:06.291Z,78.10
2017-07-03T02:11:33.844Z,78.10
2017-07-03T02:14:02.125Z,78.00
2017-07-03T02:16:35.620Z,77.90
2017-07-03T02:19:03.899Z,78.00
2017-07-03T02:21:36.270Z,78.10
2017-07-03T02:24:04.540Z,78.30
2017-07-03T02:26:35.253Z,78.10
2017-07-03T02:29:02.837Z,78.40
2017-07-03T02:31:30.319Z,78.40
2017-07-03T02:33:58.166Z,78.40
2017-07-03T02:36:36.089Z,78.20
2017-07-03T02:39:04.981Z,78.20
2017-07-03T02:41:32.519Z,78.10
2017-07-03T02:44:01.111Z,78.10
2017-07-03T02:46:34.690Z,78.10
2017-07-03T02:49:02.466Z,78.10
2017-07-03T02:51:35.973Z,78.10
2017-07-03T02:54:05.172Z,78.00
2017-07-03T02:56:33.454Z,77.80
2017-07-03T02:59:00.925Z,77.80
2017-07-03T03:01:28.417Z,77.60
2017-07-03T03:04:05.860Z,77.30
2017-07-03T03:06:34.421Z,76.90
2017-07-03T03:09:01.899Z,76.80
2017-07-03T03:11:35.990Z,76.70
2017-07-03T03:14:04.278Z,76.50
2017-07-03T03:16:32.568Z,76.50
2017-07-03T03:19:06.877Z,76.40
2017-07-03T03:21:45.257Z,76.10
2017-07-03T03:24:13.018Z,76.00
2017-07-03T03:26:40.518Z,76.00
2017-07-03T03:29:15.150Z,76.00
2017-07-03T03:31:42.694Z,75.90
2017-07-03T03:34:10.173Z,76.10
2017-07-03T03:36:37.819Z,76.20
2017-07-03T03:39:06.086Z,76.20
2017-07-03T03:41:35.805Z,76.20
2017-07-03T03:44:04.067Z,76.30
2017-07-03T03:46:32.363Z,77.10
2017-07-03T03:48:59.843Z,76.40
2017-07-03T03:51:34.783Z,76.40
2017-07-03T03:54:02.533Z,76.30
2017-07-03T03:56:35.709Z,76.10
2017-07-03T03:59:03.464Z,76.00
2017-07-03T04:01:30.942Z,75.40
2017-07-03T04:03:58.485Z,75.50
2017-07-03T04:06:34.966Z,75.10
2017-07-03T04:09:05.770Z,74.90
2017-07-03T04:11:36.638Z,74.70
2017-07-03T04:14:04.863Z,74.50
2017-07-03T04:16:35.450Z,74.00
2017-07-03T04:19:02.942Z,73.70
2017-07-03T04:21:30.425Z,73.30
2017-07-03T04:23:58.206Z,73.20
2017-07-03T04:26:36.363Z,72.10
2017-07-03T04:29:05.427Z,72.70
2017-07-03T04:31:36.627Z,71.70
2017-07-03T04:34:04.109Z,71.60
2017-07-03T04:36:31.589Z,71.30
2017-07-03T04:38:59.078Z,71.30
2017-07-03T04:41:26.911Z,71.10
2017-07-03T04:43:55.158Z,70.50
2017-07-03T04:46:22.635Z,70.40
2017-07-03T04:48:56.148Z,70.30
2017-07-03T04:51:23.620Z,70.20
2017-07-03T04:53:55.168Z,69.80
2017-07-03T04:56:22.649Z,69.60
2017-07-03T04:58:50.120Z,70.00
2017-07-03T05:01:17.610Z,70.60
2017-07-03T05:03:45.093Z,70.70
2017-07-03T05:06:12.867Z,70.50
2017-07-03T05:08:46.258Z,70.40
2017-07-03T05:11:14.014Z,70.20
2017-07-03T05:13:45.550Z,70.10
2017-07-03T05:16:16.502Z,70.00
2017-07-03T05:18:44.748Z,69.90
2017-07-03T05:21:12.226Z,69.90
2017-07-03T05:23:39.724Z,70.10
2017-07-03T05:26:07.203Z,70.00
2017-07-03T05:28:35.137Z,70.40
2017-07-03T05:31:02.622Z,70.10
2017-07-03T05:33:30.094Z,69.90
2017-07-03T05:35:57.581Z,69.70
2017-07-03T05:38:34.754Z,69.50
2017-07-03T05:41:02.549Z,69.20
2017-07-03T05:43:46.583Z,69.10
2017-07-03T05:46:14.851Z,68.40
2017-07-03T05:48:45.369Z,68.30
2017-07-03T05:51:13.126Z,67.80
2017-07-03T05:53:47.270Z,67.30
2017-07-03T05:56:15.344Z,66.90
2017-07-03T05:58:42.819Z,65.50
2017-07-03T06:01:10.301Z,64.70
2017-07-03T06:03:37.803Z,64.30
2017-07-03T06:06:05.281Z,64.30
2017-07-03T06:08:35.609Z,64.50
2017-07-03T06:11:03.873Z,64.50
2017-07-03T06:13:32.121Z,64.70
2017-07-03T06:15:59.622Z,64.60
2017-07-03T06:18:34.684Z,64.80
2017-07-03T06:21:05.808Z,64.90
2017-07-03T06:23:33.289Z,65.10
2017-07-03T06:26:00.769Z,65.10
2017-07-03T06:28:28.256Z,65.30
2017-07-03T06:30:55.745Z,65.30
2017-07-03T06:33:23.540Z,64.90
2017-07-03T06:35:56.839Z,64.70
2017-07-03T06:38:24.605Z,64.80
2017-07-03T06:40:52.087Z,64.40
2017-07-03T06:43:19.561Z,64.00
2017-07-03T06:45:47.828Z,63.60
2017-07-03T06:48:15.297Z,63.50
2017-07-03T06:50:46.139Z,63.70
2017-07-03T06:53:13.636Z,63.90
2017-07-03T06:55:41.118Z,63.70
2017-07-03T06:58:08.619Z,63.10
2017-07-03T07:00:36.878Z,62.40
2017-07-03T07:03:05.678Z,62.20
2017-07-03T07:05:34.941Z,61.60
2017-07-03T07:08:02.417Z,61.40
2017-07-03T07:10:30.190Z,61.40
2017-07-03T07:13:04.556Z,60.80
2017-07-03T07:15:32.295Z,60.60
2017-07-03T07:18:05.668Z,60.20
2017-07-03T07:20:36.836Z,60.40
2017-07-03T07:23:04.320Z,59.90
2017-07-03T07:25:31.797Z,59.80
2017-07-03T07:28:05.152Z,59.90
2017-07-03T07:30:32.641Z,60.40
2017-07-03T07:33:00.401Z,61.10
2017-07-03T07:35:27.881Z,61.10
2017-07-03T07:37:55.367Z,61.40
2017-07-03T07:40:23.639Z,60.80
2017-07-03T07:42:51.890Z,61.40
2017-07-03T07:45:25.484Z,60.70
2017-07-03T07:47:56.066Z,60.90
2017-07-03T07:50:26.900Z,60.60
2017-07-03T07:52:54.393Z,60.50
2017-07-03T07:55:21.879Z,60.20
2017-07-03T07:57:49.367Z,59.40
2017-07-03T08:00:16.845Z,59.20
2017-07-03T08:02:44.637Z,59.00
2017-07-03T08:05:12.117Z,59.00
2017-07-03T08:07:45.747Z,59.20
2017-07-03T08:10:14.001Z,59.00
2017-07-03T08:12:44.858Z,58.90
2017-07-03T08:15:13.115Z,59.00
2017-07-03T08:17:40.641Z,58.90
2017-07-03T08:20:15.475Z,59.00
2017-07-03T08:22:42.953Z,59.10
2017-07-03T08:25:16.710Z,59.40
2017-07-03T08:27:44.184Z,59.30
2017-07-03T08:30:17.687Z,59.10
2017-07-03T08:32:45.175Z,59.20
2017-07-03T08:35:12.667Z,59.30
2017-07-03T08:37:47.521Z,58.00
2017-07-03T08:40:24.611Z,58.00
2017-07-03T08:42:52.406Z,57.30
2017-07-03T08:45:19.891Z,57.30
2017-07-03T08:47:47.374Z,57.40
2017-07-03T08:50:24.786Z,57.20
2017-07-03T08:52:52.270Z,57.30
2017-07-03T08:55:20.030Z,57.10
2017-07-03T08:57:47.523Z,57.10
2017-07-03T09:00:25.153Z,57.10
2017-07-03T09:02:55.653Z,56.90
2017-07-03T09:05:23.136Z,56.80
2017-07-03T09:07:50.889Z,56.20
2017-07-03T09:10:25.194Z,55.50
2017-07-03T09:12:56.242Z,55.30
2017-07-03T09:15:23.719Z,53.30
2017-07-03T09:17:51.206Z,53.30
2017-07-03T09:20:18.714Z,52.40
2017-07-03T09:22:56.126Z,52.60
2017-07-03T09:25:25.314Z,53.30
2017-07-03T09:27:56.598Z,52.70
2017-07-03T09:30:24.082Z,52.10
2017-07-03T09:32:51.887Z,51.00
2017-07-03T09:35:19.369Z,50.00
2017-07-03T09:37:54.800Z,48.90
2017-07-03T09:40:22.277Z,48.30
2017-07-03T09:42:56.002Z,47.60
2017-07-03T09:45:23.495Z,48.50
2017-07-03T09:47:51.754Z,48.20
2017-07-03T09:50:25.607Z,48.20
2017-07-03T09:52:53.095Z,48.80
2017-07-03T09:55:20.846Z,49.20
2017-07-03T09:57:48.331Z,48.40
2017-07-03T10:00:26.165Z,48.70
2017-07-03T10:02:54.716Z,48.20
2017-07-03T10:05:25.238Z,47.20
2017-07-03T10:07:55.680Z,46.00
2017-07-03T10:10:26.205Z,44.90
2017-07-03T10:12:54.005Z,43.70
2017-07-03T10:15:25.401Z,42.30
2017-07-03T10:17:52.885Z,42.20
2017-07-03T10:20:20.366Z,41.80
2017-07-03T10:22:55.094Z,42.60
2017-07-03T10:25:22.961Z,42.60
2017-07-03T10:27:50.452Z,42.00
2017-07-03T10:30:17.938Z,40.60
2017-07-03T10:32:45.431Z,39.20
2017-07-03T10:35:15.309Z,40.00
2017-07-03T10:37:46.086Z,39.90
2017-07-03T10:40:14.350Z,40.00
2017-07-03T10:42:41.828Z,39.90
2017-07-03T10:45:15.477Z,39.20
2017-07-03T10:47:42.950Z,38.30
2017-07-03T10:50:16.974Z,37.10
2017-07-03T10:52:44.466Z,35.00
2017-07-03T10:55:15.150Z,34.10
2017-07-03T10:57:45.791Z,35.20
2017-07-03T11:00:16.194Z,34.80
2017-07-03T11:02:45.229Z,33.10
2017-07-03T11:05:15.352Z,34.40
2017-07-03T11:07:46.204Z,34.30
2017-07-03T11:10:15.491Z,34.90
2017-07-03T11:12:46.332Z,35.90
2017-07-03T11:15:13.814Z,35.10
2017-07-03T11:17:41.303Z,34.00
2017-07-03T11:20:14.646Z,32.50
2017-07-03T11:22:45.425Z,33.40
2017-07-03T11:25:16.208Z,33.40
2017-07-03T11:27:43.695Z,33.00
2017-07-03T11:30:11.179Z,33.90
2017-07-03T11:32:38.657Z,35.40
2017-07-03T11:35:06.147Z,34.40
2017-07-03T11:37:35.348Z,32.20
2017-07-03T11:40:06.479Z,32.10
2017-07-03T11:42:33.982Z,31.50
2017-07-03T11:45:04.820Z,30.40
2017-07-03T11:47:35.436Z,29.50
2017-07-03T11:50:03.195Z,29.50
2017-07-03T11:52:30.678Z,29.40
2017-07-03T11:54:58.170Z,28.70
2017-07-03T11:57:36.027Z,28.10
2017-07-03T12:00:03.494Z,28.40
2017-07-03T12:02:30.979Z,28.70
2017-07-03T12:04:58.475Z,29.40
2017-07-03T12:07:36.130Z,28.40
2017-07-03T12:10:03.932Z,28.30
2017-07-03T12:12:31.408Z,28.20
2017-07-03T12:15:05.262Z,28.60
2017-07-03T12:17:35.827Z,29.70
2017-07-03T12:20:06.680Z,30.40
2017-07-03T12:22:34.167Z,29.10
2017-07-03T12:25:01.650Z,29.50
2017-07-03T12:27:34.910Z,30.00
2017-07-03T12:30:05.697Z,31.20
2017-07-03T12:32:33.193Z,31.80
2017-07-03T12:35:00.678Z,32.20
2017-07-03T12:37:28.156Z,32.00
2017-07-03T12:39:55.633Z,31.20
2017-07-03T12:42:23.885Z,31.90
2017-07-03T12:44:57.079Z,31.80
2017-07-03T12:47:24.887Z,30.70
2017-07-03T12:49:52.375Z,29.20
2017-07-03T12:52:26.211Z,29.60
2017-07-03T12:54:53.699Z,28.80
2017-07-03T12:57:25.770Z,28.50
2017-07-03T12:59:53.262Z,28.40
2017-07-03T13:02:20.778Z,28.80
2017-07-03T13:04:54.896Z,29.80
2017-07-03T13:07:23.153Z,31.50
2017-07-03T13:09:50.954Z,31.40
2017-07-03T13:12:18.438Z,32.10
2017-07-03T13:14:45.905Z,31.90
2017-07-03T13:17:16.414Z,30.90
2017-07-03T13:19:44.706Z,32.30
2017-07-03T13:22:12.446Z,32.60
2017-07-03T13:24:39.930Z,33.30
2017-07-03T13:27:15.338Z,32.30
2017-07-03T13:29:42.820Z,32.30
2017-07-03T13:32:10.289Z,32.00
2017-07-03T13:34:37.777Z,29.60
2017-07-03T13:37:05.262Z,29.60
2017-07-03T13:39:33.837Z,28.70
2017-07-03T13:42:05.174Z,28.60
2017-07-03T13:44:32.655Z,27.20
2017-07-03T13:47:00.514Z,27.30
2017-07-03T13:49:28.107Z,26.60
2017-07-03T13:52:05.720Z,27.10
2017-07-03T13:54:33.205Z,27.50
2017-07-03T13:57:00.690Z,27.10
2017-07-03T13:59:35.434Z,26.30
2017-07-03T14:04:39.957Z,26.60
2017-07-03T14:07:08.207Z,26.90
2017-07-03T14:09:46.126Z,26.80
2017-07-03T14:12:14.373Z,26.70
2017-07-03T14:14:41.854Z,26.70
2017-07-03T14:17:09.344Z,26.50
2017-07-03T14:19:45.090Z,27.50
2017-07-03T14:22:16.217Z,27.70
2017-07-03T14:24:45.507Z,26.90
2017-07-03T14:27:12.992Z,26.70
2017-07-03T14:29:46.382Z,27.00
2017-07-03T14:32:13.855Z,28.10
2017-07-03T14:34:45.179Z,28.30
2017-07-03T14:37:12.667Z,29.50
2017-07-03T14:39:40.152Z,29.50
2017-07-03T14:42:07.634Z,30.10
2017-07-03T14:44:35.120Z,31.00
2017-07-03T14:47:02.991Z,31.50
2017-07-03T14:49:36.343Z,31.80
2017-07-03T14:52:04.145Z,31.30
2017-07-03T14:54:32.543Z,31.90
2017-07-03T14:57:06.420Z,32.00
2017-07-03T14:59:33.927Z,32.10
2017-07-03T15:02:01.412Z,33.70
2017-07-03T15:04:28.903Z,32.60
2017-07-03T15:06:57.208Z,33.10
2017-07-03T15:09:24.982Z,33.00
2017-07-03T15:11:52.479Z,31.90
2017-07-03T15:14:26.610Z,31.50
2017-07-03T15:16:54.099Z,32.40
2017-07-03T15:19:21.592Z,32.50
2017-07-03T15:21:55.230Z,32.30
2017-07-03T15:24:23.487Z,32.20
2017-07-03T15:26:51.274Z,32.20
2017-07-03T15:29:25.425Z,33.50
2017-07-03T15:31:56.644Z,32.80
2017-07-03T15:34:24.133Z,32.80
2017-07-03T15:36:57.675Z,33.20
2017-07-03T15:39:35.110Z,33.10
2017-07-03T15:42:05.928Z,33.90
2017-07-03T15:44:33.396Z,33.60
2017-07-03T15:47:00.881Z,34.30
2017-07-03T15:49:28.396Z,34.50
2017-07-03T15:52:05.254Z,34.50
2017-07-03T15:54:36.534Z,34.50
2017-07-03T15:57:04.018Z,34.60
2017-07-03T15:59:31.547Z,34.90
2017-07-03T16:01:59.048Z,35.60
2017-07-03T16:04:26.550Z,34.20
2017-07-03T16:06:55.156Z,33.40
2017-07-03T16:09:22.703Z,33.40
2017-07-03T16:11:50.942Z,34.00
2017-07-03T16:14:18.558Z,33.90
2017-07-03T16:16:46.106Z,34.20
2017-07-03T16:19:15.421Z,34.30
2017-07-03T16:21:47.950Z,34.40
2017-07-03T16:24:15.734Z,34.60
2017-07-03T16:26:44.017Z,33.90
2017-07-03T16:29:17.514Z,33.80
2017-07-03T16:31:55.824Z,34.30
2017-07-03T16:34:23.595Z,34.20
2017-07-03T16:36:51.155Z,34.60
2017-07-03T16:39:19.433Z,35.90
2017-07-03T16:41:55.183Z,35.80
2017-07-03T16:44:26.154Z,35.80
2017-07-03T16:46:53.990Z,35.10
2017-07-03T16:49:21.473Z,34.50
2017-07-03T16:51:48.954Z,34.70
2017-07-03T16:54:16.461Z,34.60
2017-07-03T16:56:43.942Z,34.70
2017-07-03T16:59:15.591Z,35.20
2017-07-03T17:01:43.144Z,35.20
2017-07-03T17:04:16.640Z,35.60
2017-07-03T17:06:45.297Z,36.30
2017-07-03T17:09:15.810Z,35.40
2017-07-03T17:11:43.409Z,35.50
2017-07-03T17:14:10.969Z,36.00
2017-07-03T17:16:39.505Z,35.70
2017-07-03T17:19:06.981Z,35.60
2017-07-03T17:21:34.451Z,35.40
2017-07-03T17:24:06.019Z,35.70
2017-07-03T17:26:34.271Z,36.40
2017-07-03T17:29:04.935Z,36.30
2017-07-03T17:31:36.893Z,36.40
2017-07-03T17:34:04.377Z,36.30
2017-07-03T17:36:35.709Z,36.50
2017-07-03T17:39:03.466Z,36.70
2017-07-03T17:41:30.940Z,36.90
2017-07-03T17:44:05.437Z,37.00
2017-07-03T17:46:34.898Z,37.40
2017-07-03T17:49:02.375Z,37.30
2017-07-03T17:51:29.867Z,37.60
2017-07-03T17:53:58.115Z,37.90
2017-07-03T17:56:35.640Z,37.90
2017-07-03T17:59:03.110Z,37.50
2017-07-03T18:01:30.581Z,37.70
2017-07-03T18:03:58.075Z,37.90
2017-07-03T18:06:35.479Z,38.00
2017-07-03T18:09:03.262Z,38.00
2017-07-03T18:11:30.735Z,38.30
2017-07-03T18:13:58.207Z,38.50
2017-07-03T18:16:25.690Z,38.70
2017-07-03T18:18:53.194Z,38.80
2017-07-03T18:21:21.779Z,39.50
2017-07-03T18:23:49.260Z,39.40
2017-07-03T18:26:16.755Z,39.40
2017-07-03T18:28:44.239Z,39.50
2017-07-03T18:31:11.713Z,39.50
2017-07-03T18:33:46.397Z,39.70
2017-07-03T18:36:13.877Z,39.50
2017-07-03T18:38:41.364Z,39.50
2017-07-03T18:41:08.855Z,39.70
2017-07-03T18:43:44.582Z,39.60
2017-07-03T18:46:12.330Z,39.40
2017-07-03T18:48:46.553Z,40.00
2017-07-03T18:51:14.417Z,40.00
2017-07-03T18:53:42.663Z,40.00
2017-07-03T18:56:10.137Z,39.90
2017-07-03T18:58:37.636Z,39.70
2017-07-03T19:01:15.651Z,39.80
2017-07-03T19:03:46.850Z,39.50
2017-07-03T19:06:15.039Z,39.80
2017-07-03T19:08:45.705Z,40.00
2017-07-03T19:11:16.497Z,39.70
2017-07-03T19:13:44.000Z,39.80
2017-07-03T19:16:15.308Z,39.90
2017-07-03T19:18:46.252Z,39.90
2017-07-03T19:21:15.357Z,40.20
2017-07-03T19:23:46.186Z,40.30
2017-07-03T19:26:14.430Z,40.70
2017-07-03T19:28:45.043Z,40.70
2017-07-03T19:31:12.521Z,41.30
2017-07-03T19:33:40.008Z,41.40
2017-07-03T19:36:07.758Z,41.70
2017-07-03T19:38:45.369Z,42.20
2017-07-03T19:41:13.123Z,42.40
2017-07-03T19:43:40.620Z,42.70
2017-07-03T19:46:15.485Z,42.80
2017-07-03T19:48:45.981Z,42.80
2017-07-03T19:51:13.505Z,43.10
2017-07-03T19:53:47.006Z,43.30
2017-07-03T19:56:14.808Z,43.30
2017-07-03T19:58:42.631Z,43.50
2017-07-03T20:01:10.878Z,43.70
2017-07-03T20:03:38.363Z,43.70
2017-07-03T20:06:05.876Z,44.10
2017-07-03T20:08:36.653Z,44.60
2017-07-03T20:11:04.433Z,44.70
2017-07-03T20:13:31.983Z,44.70
2017-07-03T20:15:59.489Z,45.30
2017-07-03T20:18:26.979Z,45.40
2017-07-03T20:20:54.558Z,45.60
2017-07-03T20:23:22.328Z,45.40
2017-07-03T20:25:56.327Z,45.60
2017-07-03T20:28:24.914Z,45.90
2017-07-03T20:30:55.802Z,45.90
2017-07-03T20:33:26.692Z,46.00
2017-07-03T20:35:54.940Z,46.50
2017-07-03T20:38:22.535Z,46.40
2017-07-03T20:40:50.034Z,46.90
2017-07-03T20:43:24.614Z,47.10
2017-07-03T20:45:56.584Z,48.50
2017-07-03T20:48:24.750Z,47.90
2017-07-03T20:50:56.248Z,48.40
2017-07-03T20:53:23.767Z,48.30
2017-07-03T20:55:51.257Z,49.30
2017-07-03T20:58:25.401Z,49.10
2017-07-03T21:00:52.890Z,49.20
2017-07-03T21:03:20.368Z,49.50
2017-07-03T21:05:47.910Z,49.80
2017-07-03T21:08:24.478Z,50.10
2017-07-03T21:10:52.243Z,50.00
2017-07-03T21:13:19.717Z,50.20
2017-07-03T21:15:55.296Z,50.40
2017-07-03T21:18:22.775Z,50.50
2017-07-03T21:20:56.449Z,50.80
2017-07-03T21:23:24.951Z,51.00
2017-07-03T21:25:52.435Z,51.20
2017-07-03T21:28:26.007Z,51.20
2017-07-03T21:30:53.523Z,51.20
2017-07-03T21:33:21.372Z,51.40
2017-07-03T21:35:49.612Z,51.40
2017-07-03T21:38:24.719Z,51.40
2017-07-03T21:40:55.318Z,51.60
2017-07-03T21:43:23.566Z,51.60
2017-07-03T21:45:51.158Z,51.60
2017-07-03T21:48:19.428Z,51.60
2017-07-03T21:50:47.211Z,51.50
2017-07-03T21:53:14.794Z,51.60
2017-07-03T21:55:42.335Z,51.80
2017-07-03T21:58:16.029Z,51.70
2017-07-03T22:00:43.501Z,51.80
2017-07-03T22:03:17.319Z,52.00
2017-07-03T22:05:44.845Z,52.00
2017-07-03T22:08:12.326Z,52.20
2017-07-03T22:10:45.924Z,52.70
2017-07-03T22:13:13.456Z,52.00
2017-07-03T22:15:42.054Z,51.30
2017-07-03T22:18:09.610Z,51.20
2017-07-03T22:20:45.271Z,50.90
2017-07-03T22:23:12.741Z,50.90
2017-07-03T22:25:40.225Z,50.80
2017-07-03T22:28:07.771Z,50.50
2017-07-03T22:30:45.132Z,50.60
2017-07-03T22:33:15.901Z,50.90
2017-07-03T22:35:46.451Z,50.90
2017-07-03T22:38:14.257Z,50.90
2017-07-03T22:40:42.540Z,51.40
2017-07-03T22:43:10.098Z,51.30
2017-07-03T22:45:37.586Z,51.90
2017-07-03T22:48:15.151Z,52.70
2017-07-03T22:50:42.979Z,53.50
2017-07-03T22:53:10.579Z,53.80
2017-07-03T22:55:45.166Z,53.90
2017-07-03T22:58:15.694Z,54.00
2017-07-03T23:00:43.179Z,54.10
2017-07-03T23:03:11.459Z,54.30
2017-07-03T23:05:45.380Z,54.50
2017-07-03T23:08:13.135Z,54.30
2017-07-03T23:10:46.462Z,54.50
2017-07-03T23:13:14.228Z,54.50
2017-07-03T23:15:44.862Z,54.80
2017-07-03T23:18:15.770Z,54.90
2017-07-03T23:20:43.259Z,55.10
2017-07-03T23:23:10.742Z,55.10
2017-07-03T23:25:44.964Z,55.30
2017-07-03T23:28:15.468Z,55.50
2017-07-03T23:30:46.267Z,55.40
2017-07-03T23:33:15.419Z,55.40
2017-07-03T23:35:42.889Z,55.30
2017-07-03T23:38:16.317Z,55.30
2017-07-03T23:40:43.794Z,55.40
2017-07-03T23:43:11.538Z,55.60
2017-07-03T23:45:45.031Z,55.70
2017-07-03T23:48:13.620Z,55.70
2017-07-03T23:50:41.103Z,55.60
2017-07-03T23:53:15.139Z,55.80
2017-07-03T23:55:42.631Z,55.90
2017-07-03T23:58:16.479Z,56.20
